Time;durP1;ratioP1;P1;durP2;ratioP2;P2;SDS_P1;SDS_P2;PMS_P1;PMS_P2;Temp;Humidity;BMP_temperature;BMP_pressure;BME280_temperature;BME280_humidity;BME280_pressure;Samples;Min_cycle;Max_cycle;Signal;HPM_P1;HPM_P2
2022/05/18 00:01:44;;;;;;;;;;;21.00;94.70;;;;;;4330385;33;43857;-79
2022/05/18 00:04:16;;;;;;;;;;;21.00;94.90;;;;;;4329937;33;45454;-79
2022/05/18 00:06:50;;;;;;;;;;;21.00;94.90;;;;;;4317435;33;43330;-79
2022/05/18 00:09:17;;;;;;;;;;;21.00;94.50;;;;;;4330700;33;44264;-79
2022/05/18 00:11:52;;;;;;;;;;;20.90;94.40;;;;;;4330639;33;44048;-78
2022/05/18 00:14:20;;;;;;;;;;;21.00;94.30;;;;;;4317207;33;44050;-79
2022/05/18 00:16:47;;;;;;;;;;;21.00;94.60;;;;;;4316858;33;44597;-80
2022/05/18 00:19:17;;;;;;;;;;;20.90;94.50;;;;;;4318322;33;20408;-78
2022/05/18 00:21:46;;;;;;;;;;;20.90;94.60;;;;;;4330099;33;42508;-78
2022/05/18 00:24:19;;;;;;;;;;;20.90;94.50;;;;;;4330136;33;44125;-78
2022/05/18 00:26:49;;;;;;;;;;;20.90;94.40;;;;;;4330327;33;42866;-78
2022/05/18 00:29:21;;;;;;;;;;;20.90;94.40;;;;;;4329926;33;43400;-78
2022/05/18 00:31:51;;;;;;;;;;;20.90;94.30;;;;;;4317287;33;44785;-78
2022/05/18 00:34:27;;;;;;;;;;;20.80;94.50;;;;;;4317338;33;43471;-78
2022/05/18 00:37:00;;;;;;;;;;;20.80;94.10;;;;;;4330341;33;41847;-78
2022/05/18 00:39:33;;;;;;;;;;;20.90;94.10;;;;;;4330616;33;42980;-78
2022/05/18 00:42:00;;;;;;;;;;;20.80;94.40;;;;;;4317531;33;43872;-78
2022/05/18 00:44:30;;;;;;;;;;;20.80;94.10;;;;;;4317333;33;43302;-79
2022/05/18 00:46:59;;;;;;;;;;;20.80;94.30;;;;;;4316745;33;42512;-78
2022/05/18 00:49:52;;;;;;;;;;;20.80;94.20;;;;;;4319391;33;45619;-79
2022/05/18 00:52:26;;;;;;;;;;;20.80;94.10;;;;;;4330369;33;43225;-78
2022/05/18 00:54:58;;;;;;;;;;;20.80;94.10;;;;;;4316741;33;42588;-79
2022/05/18 00:57:32;;;;;;;;;;;20.70;94.20;;;;;;4317341;33;43467;-79
2022/05/18 01:00:11;;;;;;;;;;;20.70;94.20;;;;;;4330494;33;43041;-78
2022/05/18 01:02:44;;;;;;;;;;;20.70;94.10;;;;;;4329857;33;44226;-79
2022/05/18 01:05:12;;;;;;;;;;;20.70;93.90;;;;;;4330322;33;43641;-79
2022/05/18 01:07:49;;;;;;;;;;;20.70;93.80;;;;;;4317045;33;44905;-79
2022/05/18 01:10:19;;;;;;;;;;;20.70;93.70;;;;;;4330037;33;43776;-78
2022/05/18 01:12:51;;;;;;;;;;;20.70;93.80;;;;;;4329868;33;43238;-78
2022/05/18 01:15:19;;;;;;;;;;;20.70;93.70;;;;;;4332021;33;42595;-78
2022/05/18 01:17:57;;;;;;;;;;;20.70;94.00;;;;;;4332979;33;44188;-78
2022/05/18 01:20:30;;;;;;;;;;;20.60;93.70;;;;;;4333572;33;20423;-79
2022/05/18 01:23:00;;;;;;;;;;;20.70;93.60;;;;;;4332377;33;42729;-79
2022/05/18 01:25:39;;;;;;;;;;;20.60;93.60;;;;;;4332557;33;43971;-80
2022/05/18 01:28:06;;;;;;;;;;;20.60;93.40;;;;;;4319532;33;44108;-78
2022/05/18 01:30:38;;;;;;;;;;;20.60;93.50;;;;;;4332203;33;43619;-79
2022/05/18 01:33:13;;;;;;;;;;;20.50;93.70;;;;;;4332313;33;43353;-78
2022/05/18 01:35:46;;;;;;;;;;;20.60;93.50;;;;;;4332636;33;43809;-79
2022/05/18 01:38:18;;;;;;;;;;;20.50;93.50;;;;;;4332298;33;42605;-79
2022/05/18 01:41:01;;;;;;;;;;;20.60;93.60;;;;;;4332688;33;43547;-79
2022/05/18 01:43:37;;;;;;;;;;;20.50;93.50;;;;;;4332596;33;44285;-79
2022/05/18 01:46:12;;;;;;;;;;;20.50;93.70;;;;;;4331989;33;44074;-79
2022/05/18 01:48:41;;;;;;;;;;;20.50;94.00;;;;;;4332401;33;43574;-80
2022/05/18 01:51:12;;;;;;;;;;;20.50;93.70;;;;;;4332347;33;43300;-79
2022/05/18 01:53:41;;;;;;;;;;;20.50;93.50;;;;;;4332245;33;44557;-79
2022/05/18 01:56:16;;;;;;;;;;;20.50;93.60;;;;;;4318849;33;44124;-79
2022/05/18 01:58:46;;;;;;;;;;;20.50;93.70;;;;;;4332043;33;44158;-79
2022/05/18 02:01:18;;;;;;;;;;;20.50;93.90;;;;;;4318526;33;43501;-79
2022/05/18 02:03:45;;;;;;;;;;;20.40;93.60;;;;;;4332313;33;43104;-79
2022/05/18 02:06:15;;;;;;;;;;;20.40;93.90;;;;;;4318931;33;44461;-78
2022/05/18 02:08:44;;;;;;;;;;;20.40;93.80;;;;;;4331934;33;42343;-80
2022/05/18 02:11:12;;;;;;;;;;;20.40;93.60;;;;;;4319014;33;44025;-78
2022/05/18 02:13:39;;;;;;;;;;;20.40;93.60;;;;;;4318912;33;44236;-78
2022/05/18 02:16:18;;;;;;;;;;;20.40;93.80;;;;;;4331730;33;44162;-78
2022/05/18 02:18:50;;;;;;;;;;;20.40;93.70;;;;;;4332015;33;43865;-79
2022/05/18 02:21:23;;;;;;;;;;;20.40;93.70;;;;;;4319600;33;20036;-78
2022/05/18 02:23:58;;;;;;;;;;;20.40;93.70;;;;;;4331612;33;42436;-79
2022/05/18 02:26:28;;;;;;;;;;;20.40;93.60;;;;;;4331336;33;42518;-79
2022/05/18 02:28:55;;;;;;;;;;;20.40;93.40;;;;;;4331308;33;44325;-80
2022/05/18 02:31:25;;;;;;;;;;;20.40;93.70;;;;;;4331581;33;43602;-79
2022/05/18 02:33:55;;;;;;;;;;;20.40;93.40;;;;;;4331539;33;42086;-79
2022/05/18 02:36:24;;;;;;;;;;;20.40;93.40;;;;;;4331314;33;42253;-78
2022/05/18 02:38:53;;;;;;;;;;;20.40;93.40;;;;;;4331552;33;43200;-79
2022/05/18 02:41:23;;;;;;;;;;;20.40;93.40;;;;;;4331208;33;43747;-78
2022/05/18 02:43:52;;;;;;;;;;;20.40;93.60;;;;;;4331617;33;42999;-79
2022/05/18 02:46:25;;;;;;;;;;;20.40;93.70;;;;;;4317929;33;44022;-79
2022/05/18 02:48:57;;;;;;;;;;;20.30;93.60;;;;;;4331113;33;42690;-79
2022/05/18 02:51:24;;;;;;;;;;;20.30;93.30;;;;;;4319391;33;20411;-79
2022/05/18 02:53:56;;;;;;;;;;;20.30;93.40;;;;;;4318449;33;42974;-78
2022/05/18 02:56:28;;;;;;;;;;;20.30;93.70;;;;;;4331474;33;43969;-79
2022/05/18 02:59:00;;;;;;;;;;;20.30;93.30;;;;;;4331031;33;42464;-78
2022/05/18 03:01:28;;;;;;;;;;;20.30;93.20;;;;;;4331258;33;45814;-78
2022/05/18 03:03:58;;;;;;;;;;;20.40;93.30;;;;;;4331613;33;42712;-78
2022/05/18 03:06:25;;;;;;;;;;;20.30;93.30;;;;;;4318134;33;45577;-78
2022/05/18 03:08:55;;;;;;;;;;;20.30;93.40;;;;;;4317931;33;42859;-79
2022/05/18 03:11:22;;;;;;;;;;;20.30;93.40;;;;;;4331143;33;43028;-78
2022/05/18 03:13:52;;;;;;;;;;;20.30;93.20;;;;;;4331325;33;44787;-78
2022/05/18 03:16:30;;;;;;;;;;;20.30;93.40;;;;;;4318076;33;43466;-78
2022/05/18 03:18:57;;;;;;;;;;;20.30;93.20;;;;;;4330791;33;42923;-77
2022/05/18 03:24:17;;;;;;;;;;;20.30;93.00;;;;;;4330698;33;42931;-78
2022/05/18 03:26:50;;;;;;;;;;;20.30;93.10;;;;;;4317997;33;45755;-78
2022/05/18 03:29:20;;;;;;;;;;;20.30;93.10;;;;;;4317340;33;42621;-77
2022/05/18 03:31:50;;;;;;;;;;;20.30;93.20;;;;;;4330983;33;43275;-78
2022/05/18 03:34:17;;;;;;;;;;;20.30;93.00;;;;;;4330709;33;43969;-78
2022/05/18 03:36:44;;;;;;;;;;;20.30;93.40;;;;;;4330559;33;43040;-78
2022/05/18 03:39:12;;;;;;;;;;;20.30;93.10;;;;;;4316948;33;44194;-78
2022/05/18 03:41:43;;;;;;;;;;;20.30;92.90;;;;;;4317335;33;45499;-78
2022/05/18 03:44:15;;;;;;;;;;;20.30;93.00;;;;;;4317294;33;43684;-78
2022/05/18 03:46:42;;;;;;;;;;;20.30;92.90;;;;;;4330751;33;43936;-78
2022/05/18 03:49:17;;;;;;;;;;;20.30;93.10;;;;;;4330225;33;43912;-78
2022/05/18 03:51:49;;;;;;;;;;;20.20;92.90;;;;;;4331027;33;44094;-78
2022/05/18 03:54:16;;;;;;;;;;;20.30;93.10;;;;;;4330432;33;43697;-79
2022/05/18 03:56:48;;;;;;;;;;;20.30;93.00;;;;;;4330393;33;43552;-78
2022/05/18 03:59:15;;;;;;;;;;;20.30;93.00;;;;;;4330702;33;44047;-78
2022/05/18 04:01:42;;;;;;;;;;;20.30;92.90;;;;;;4330105;33;42888;-77
2022/05/18 04:04:12;;;;;;;;;;;20.30;93.30;;;;;;4330242;33;42888;-77
2022/05/18 04:06:44;;;;;;;;;;;20.30;93.20;;;;;;4330750;33;43722;-78
2022/05/18 04:09:15;;;;;;;;;;;20.20;92.90;;;;;;4330487;33;43986;-77
2022/05/18 04:11:44;;;;;;;;;;;20.20;93.50;;;;;;4317449;33;42783;-78
2022/05/18 04:14:14;;;;;;;;;;;20.30;93.60;;;;;;4330794;33;43790;-78
2022/05/18 04:16:49;;;;;;;;;;;20.30;93.70;;;;;;4330163;33;43686;-78
2022/05/18 04:19:22;;;;;;;;;;;20.30;93.80;;;;;;4317359;33;43450;-77
2022/05/18 04:21:51;;;;;;;;;;;20.20;93.80;;;;;;4330128;33;44179;-78
2022/05/18 04:24:26;;;;;;;;;;;20.20;93.80;;;;;;4331286;33;21597;-78
2022/05/18 04:26:58;;;;;;;;;;;20.20;93.90;;;;;;4317505;33;43821;-78
2022/05/18 04:29:31;;;;;;;;;;;20.20;93.90;;;;;;4330186;33;43794;-78
2022/05/18 04:32:07;;;;;;;;;;;20.20;94.10;;;;;;4330431;33;42515;-77
2022/05/18 04:34:42;;;;;;;;;;;20.20;94.10;;;;;;4330438;33;44882;-78
2022/05/18 04:37:11;;;;;;;;;;;20.20;94.10;;;;;;4317522;33;44240;-78
2022/05/18 04:39:41;;;;;;;;;;;20.20;94.20;;;;;;4330186;33;44403;-78
2022/05/18 04:42:14;;;;;;;;;;;20.20;94.50;;;;;;4317064;33;44298;-77
2022/05/18 04:44:41;;;;;;;;;;;20.20;94.50;;;;;;4330016;33;42137;-78
2022/05/18 04:47:11;;;;;;;;;;;20.20;94.50;;;;;;4329882;33;42181;-78
2022/05/18 04:49:41;;;;;;;;;;;20.20;94.60;;;;;;4331022;33;42891;-78
2022/05/18 04:52:14;;;;;;;;;;;20.20;94.60;;;;;;4332754;33;42683;-77
2022/05/18 04:54:49;;;;;;;;;;;20.20;94.60;;;;;;4320481;33;20012;-77
2022/05/18 04:57:16;;;;;;;;;;;20.20;94.70;;;;;;4333261;33;43478;-78
2022/05/18 04:59:52;;;;;;;;;;;20.20;94.50;;;;;;4319852;33;44309;-78
2022/05/18 05:02:19;;;;;;;;;;;20.20;94.70;;;;;;4332426;33;43657;-77
2022/05/18 05:04:49;;;;;;;;;;;20.20;94.60;;;;;;4319868;33;43262;-78
2022/05/18 05:07:18;;;;;;;;;;;20.10;94.60;;;;;;4319704;33;42929;-77
2022/05/18 05:09:48;;;;;;;;;;;20.20;94.70;;;;;;4332232;33;43710;-77
2022/05/18 05:12:26;;;;;;;;;;;20.20;94.70;;;;;;4332717;33;43032;-78
2022/05/18 05:14:56;;;;;;;;;;;20.10;94.70;;;;;;4332254;33;43654;-77
2022/05/18 05:17:26;;;;;;;;;;;20.10;94.70;;;;;;4332421;33;43463;-77
2022/05/18 05:19:55;;;;;;;;;;;20.00;94.80;;;;;;4332289;33;43895;-77
2022/05/18 05:22:28;;;;;;;;;;;20.10;95.00;;;;;;4319894;33;44245;-77
2022/05/18 05:25:03;;;;;;;;;;;20.10;95.20;;;;;;4333766;33;20030;-77
2022/05/18 05:27:30;;;;;;;;;;;20.10;95.30;;;;;;4319478;33;44253;-77
2022/05/18 05:29:57;;;;;;;;;;;20.00;95.40;;;;;;4332407;33;42139;-78
2022/05/18 05:32:25;;;;;;;;;;;20.10;95.40;;;;;;4318770;33;43616;-77
2022/05/18 05:34:54;;;;;;;;;;;20.00;95.40;;;;;;4332346;33;43887;-77
2022/05/18 05:37:24;;;;;;;;;;;20.00;95.00;;;;;;4318707;33;43482;-77
2022/05/18 05:39:57;;;;;;;;;;;20.00;95.10;;;;;;4331817;33;44114;-77
2022/05/18 05:42:24;;;;;;;;;;;20.00;95.10;;;;;;4319240;33;43475;-77
2022/05/18 05:44:54;;;;;;;;;;;20.00;95.20;;;;;;4332269;33;43926;-77
2022/05/18 05:47:24;;;;;;;;;;;20.00;95.30;;;;;;4332050;33;43100;-77
2022/05/18 05:49:54;;;;;;;;;;;20.00;95.30;;;;;;4332187;33;43202;-77
2022/05/18 05:52:21;;;;;;;;;;;20.10;95.30;;;;;;4332463;33;44990;-78
2022/05/18 05:54:48;;;;;;;;;;;20.10;95.30;;;;;;4331772;33;43033;-77
2022/05/18 05:57:15;;;;;;;;;;;20.10;95.30;;;;;;4319293;33;20006;-77
2022/05/18 05:59:45;;;;;;;;;;;20.10;95.30;;;;;;4331737;33;42761;-77
2022/05/18 06:02:15;;;;;;;;;;;20.10;95.20;;;;;;4330561;33;43209;-77
2022/05/18 06:04:43;;;;;;;;;;;20.10;95.20;;;;;;4332088;33;44183;-77
2022/05/18 06:07:10;;;;;;;;;;;20.10;95.30;;;;;;4331642;33;44188;-76
2022/05/18 06:09:38;;;;;;;;;;;20.10;95.30;;;;;;4331572;33;44196;-76
2022/05/18 06:12:08;;;;;;;;;;;20.10;95.40;;;;;;4318764;33;43016;-76
2022/05/18 06:14:35;;;;;;;;;;;20.10;95.40;;;;;;4331895;33;42212;-77
2022/05/18 06:17:04;;;;;;;;;;;20.10;95.40;;;;;;4331921;33;43709;-78
2022/05/18 06:19:33;;;;;;;;;;;20.10;95.50;;;;;;4331856;33;43258;-78
2022/05/18 06:22:08;;;;;;;;;;;20.20;95.60;;;;;;4331948;33;44092;-79
2022/05/18 06:24:40;;;;;;;;;;;20.10;95.70;;;;;;4331792;33;45063;-78
2022/05/18 06:27:10;;;;;;;;;;;20.20;95.80;;;;;;4331820;33;42817;-78
2022/05/18 06:29:37;;;;;;;;;;;20.20;95.50;;;;;;4331381;33;44709;-78
2022/05/18 06:32:06;;;;;;;;;;;20.20;95.30;;;;;;4331321;33;43412;-77
2022/05/18 06:34:36;;;;;;;;;;;20.20;95.10;;;;;;4318047;33;43244;-78
2022/05/18 06:37:05;;;;;;;;;;;20.20;95.10;;;;;;4331784;33;42227;-78
2022/05/18 06:39:36;;;;;;;;;;;20.20;95.10;;;;;;4318573;33;43864;-78
2022/05/18 06:42:03;;;;;;;;;;;20.20;95.10;;;;;;4318058;33;44031;-78
2022/05/18 06:44:31;;;;;;;;;;;20.20;94.80;;;;;;4331518;33;45611;-78
2022/05/18 06:46:59;;;;;;;;;;;20.20;94.80;;;;;;4318425;33;43034;-78
2022/05/18 06:49:32;;;;;;;;;;;20.20;95.00;;;;;;4331596;33;43897;-78
2022/05/18 06:52:02;;;;;;;;;;;20.20;94.90;;;;;;4318593;33;43244;-78
2022/05/18 06:54:34;;;;;;;;;;;20.20;94.90;;;;;;4331391;33;44203;-78
2022/05/18 06:57:19;;;;;;;;;;;20.20;94.80;;;;;;4319682;33;42639;-78
2022/05/18 06:59:49;;;;;;;;;;;20.20;94.80;;;;;;4317934;33;43451;-78
2022/05/18 07:02:19;;;;;;;;;;;20.20;95.00;;;;;;4317528;33;43716;-78
2022/05/18 07:04:47;;;;;;;;;;;20.30;95.00;;;;;;4331008;33;42526;-78
2022/05/18 07:07:20;;;;;;;;;;;20.30;95.00;;;;;;4318582;33;42551;-78
2022/05/18 07:09:50;;;;;;;;;;;20.30;95.10;;;;;;4318025;33;43893;-78
2022/05/18 07:12:19;;;;;;;;;;;20.30;95.00;;;;;;4330819;33;43548;-78
2022/05/18 07:14:59;;;;;;;;;;;20.30;95.10;;;;;;4331349;33;44723;-78
2022/05/18 07:17:29;;;;;;;;;;;20.30;95.00;;;;;;4318077;33;43377;-78
2022/05/18 07:20:21;;;;;;;;;;;20.30;95.00;;;;;;4331101;33;24329;-78
2022/05/18 07:22:55;;;;;;;;;;;20.30;95.00;;;;;;4317541;33;44125;-78
2022/05/18 07:25:22;;;;;;;;;;;20.30;95.10;;;;;;4318017;33;43239;-78
2022/05/18 07:27:49;;;;;;;;;;;20.30;95.00;;;;;;4330733;33;44917;-78
2022/05/18 07:30:39;;;;;;;;;;;20.30;94.90;;;;;;4331075;33;45997;-78
2022/05/18 07:33:09;;;;;;;;;;;20.30;95.00;;;;;;4317498;33;43779;-78
2022/05/18 07:35:36;;;;;;;;;;;20.30;94.90;;;;;;4330892;33;43937;-78
2022/05/18 07:38:06;;;;;;;;;;;20.30;94.80;;;;;;4317377;33;42988;-80
2022/05/18 07:40:53;;;;;;;;;;;20.30;94.90;;;;;;4319484;33;41244;-78
2022/05/18 07:43:21;;;;;;;;;;;20.30;94.90;;;;;;4330415;33;43895;-78
2022/05/18 07:45:55;;;;;;;;;;;20.40;94.90;;;;;;4330599;33;43261;-78
2022/05/18 07:48:22;;;;;;;;;;;20.30;94.90;;;;;;4317698;33;44219;-78
2022/05/18 07:50:52;;;;;;;;;;;20.40;95.30;;;;;;4317211;33;43951;-78
2022/05/18 07:53:25;;;;;;;;;;;20.30;95.30;;;;;;4317477;33;43090;-78
2022/05/18 07:55:52;;;;;;;;;;;20.40;95.60;;;;;;4317318;33;42445;-78
2022/05/18 07:58:21;;;;;;;;;;;20.40;95.50;;;;;;4330651;33;44025;-78
2022/05/18 08:00:48;;;;;;;;;;;20.40;95.50;;;;;;4330590;33;42708;-78
2022/05/18 08:03:18;;;;;;;;;;;20.40;95.40;;;;;;4316973;33;42752;-78
2022/05/18 08:05:46;;;;;;;;;;;20.40;95.20;;;;;;4330176;33;43479;-78
2022/05/18 08:08:15;;;;;;;;;;;20.40;95.20;;;;;;4317218;33;44106;-78
2022/05/18 08:16:26;;;;;;;;;;;20.40;95.40;;;;;;4330194;33;42651;-78
2022/05/18 08:18:58;;;;;;;;;;;20.50;95.20;;;;;;4330475;33;45371;-78
2022/05/18 08:21:25;;;;;;;;;;;20.40;95.20;;;;;;4317495;33;44851;-78
2022/05/18 08:23:55;;;;;;;;;;;20.50;95.30;;;;;;4330176;33;44408;-78
2022/05/18 08:26:30;;;;;;;;;;;20.50;95.70;;;;;;4333532;33;46131;-78
2022/05/18 08:28:58;;;;;;;;;;;20.50;95.20;;;;;;4333531;33;42919;-78
2022/05/18 08:31:30;;;;;;;;;;;20.50;95.30;;;;;;4320620;33;20005;-78
2022/05/18 08:34:03;;;;;;;;;;;20.50;95.40;;;;;;4333073;33;42258;-78
2022/05/18 08:36:36;;;;;;;;;;;20.50;95.30;;;;;;4320199;33;42662;-78
2022/05/18 08:39:09;;;;;;;;;;;20.50;95.30;;;;;;4333423;33;44052;-78
2022/05/18 08:41:42;;;;;;;;;;;20.50;95.40;;;;;;4320329;33;45309;-77
2022/05/18 08:44:09;;;;;;;;;;;20.50;95.50;;;;;;4319883;33;44069;-78
2022/05/18 08:46:43;;;;;;;;;;;20.50;95.50;;;;;;4333436;33;45721;-78
2022/05/18 08:49:20;;;;;;;;;;;20.60;95.50;;;;;;4319666;33;42998;-77
2022/05/18 08:51:59;;;;;;;;;;;20.60;95.40;;;;;;4332783;33;43608;-78
2022/05/18 08:54:35;;;;;;;;;;;20.60;95.20;;;;;;4332847;33;43187;-78
2022/05/18 08:57:05;;;;;;;;;;;20.60;95.20;;;;;;4320175;33;43942;-78
2022/05/18 08:59:39;;;;;;;;;;;20.60;95.00;;;;;;4333103;33;45006;-78
2022/05/18 09:02:13;;;;;;;;;;;20.60;95.10;;;;;;4332829;33;42878;-78
2022/05/18 09:04:50;;;;;;;;;;;20.60;95.10;;;;;;4333287;33;43207;-78
2022/05/18 09:07:41;;;;;;;;;;;20.70;95.00;;;;;;4332727;33;46041;-77
2022/05/18 09:10:16;;;;;;;;;;;20.70;95.30;;;;;;4332867;33;43253;-78
2022/05/18 09:12:48;;;;;;;;;;;20.70;95.20;;;;;;4320059;33;42662;-77
2022/05/18 09:15:20;;;;;;;;;;;20.70;95.20;;;;;;4332974;33;43259;-78
2022/05/18 09:17:57;;;;;;;;;;;20.70;95.20;;;;;;4332823;33;42112;-77
2022/05/18 09:20:35;;;;;;;;;;;20.70;95.10;;;;;;4332796;33;44786;-77
2022/05/18 09:23:20;;;;;;;;;;;20.70;95.20;;;;;;4319656;33;43879;-77
2022/05/18 09:25:59;;;;;;;;;;;20.70;95.30;;;;;;4333048;33;43909;-77
2022/05/18 09:28:29;;;;;;;;;;;20.70;95.30;;;;;;4332906;33;43279;-78
2022/05/18 09:31:05;;;;;;;;;;;20.80;95.40;;;;;;4332160;33;43981;-77
2022/05/18 09:33:38;;;;;;;;;;;20.80;95.50;;;;;;4332865;33;21241;-77
2022/05/18 09:36:15;;;;;;;;;;;20.80;95.50;;;;;;4332121;33;44279;-77
2022/05/18 09:38:51;;;;;;;;;;;20.80;95.60;;;;;;4319377;33;44282;-77
2022/05/18 09:41:25;;;;;;;;;;;20.80;95.70;;;;;;4332662;33;43609;-77
2022/05/18 09:43:57;;;;;;;;;;;20.80;95.90;;;;;;4332546;33;45772;-78
2022/05/18 09:46:28;;;;;;;;;;;20.80;95.80;;;;;;4319415;33;44171;-77
2022/05/18 09:49:03;;;;;;;;;;;20.80;95.60;;;;;;4318875;33;45258;-77
2022/05/18 09:51:30;;;;;;;;;;;20.80;95.50;;;;;;4319281;33;43037;-77
2022/05/18 09:54:01;;;;;;;;;;;20.80;95.60;;;;;;4332408;33;44849;-78
2022/05/18 09:56:35;;;;;;;;;;;20.90;95.70;;;;;;4332413;33;43829;-77
2022/05/18 09:59:08;;;;;;;;;;;20.90;95.50;;;;;;4332554;33;43507;-78
2022/05/18 10:10:08;;;;;;;;;;;20.90;95.50;;;;;;4332195;33;44022;-77
2022/05/18 10:12:46;;;;;;;;;;;20.90;95.50;;;;;;4319283;33;43834;-77
2022/05/18 10:15:29;;;;;;;;;;;21.00;95.60;;;;;;4332179;33;43275;-77
2022/05/18 10:17:58;;;;;;;;;;;21.00;95.70;;;;;;4332185;33;44214;-77
2022/05/18 10:20:28;;;;;;;;;;;21.00;96.10;;;;;;4318395;33;43105;-78
2022/05/18 10:22:59;;;;;;;;;;;21.00;95.90;;;;;;4331796;33;43685;-78
2022/05/18 10:25:29;;;;;;;;;;;21.00;96.30;;;;;;4318766;33;43760;-78
2022/05/18 10:28:02;;;;;;;;;;;21.00;96.30;;;;;;4331933;33;44082;-78
2022/05/18 10:30:34;;;;;;;;;;;21.00;96.60;;;;;;4318852;33;42756;-78
2022/05/18 10:33:08;;;;;;;;;;;21.00;96.40;;;;;;4318259;33;43904;-78
2022/05/18 10:35:51;;;;;;;;;;;21.10;96.50;;;;;;4332516;33;20403;-77
2022/05/18 10:38:47;;;;;;;;;;;21.10;96.60;;;;;;4318652;33;44178;-78
2022/05/18 10:41:16;;;;;;;;;;;21.10;96.50;;;;;;4330432;33;42664;-77
2022/05/18 10:43:57;;;;;;;;;;;21.10;96.60;;;;;;4331793;33;43096;-78
2022/05/18 10:46:32;;;;;;;;;;;21.20;96.70;;;;;;4331450;33;42908;-77
2022/05/18 10:49:03;;;;;;;;;;;21.20;96.80;;;;;;4331419;33;43461;-78
2022/05/18 10:51:52;;;;;;;;;;;21.20;96.80;;;;;;4331271;33;44309;-77
2022/05/18 10:54:25;;;;;;;;;;;21.20;97.30;;;;;;4331793;33;44017;-78
2022/05/18 10:56:56;;;;;;;;;;;21.20;96.90;;;;;;4331528;33;43680;-78
2022/05/18 10:59:43;;;;;;;;;;;21.30;96.90;;;;;;4318505;33;42079;-78
2022/05/18 11:02:28;;;;;;;;;;;21.30;96.90;;;;;;4323328;33;44214;-77
2022/05/18 11:05:25;;;;;;;;;;;21.30;97.00;;;;;;4331509;33;43324;-77
2022/05/18 11:07:52;;;;;;;;;;;21.30;97.00;;;;;;4322069;33;20013;-77
2022/05/18 11:10:22;;;;;;;;;;;21.30;97.00;;;;;;4317689;33;43078;-77
2022/05/18 11:13:02;;;;;;;;;;;21.30;97.40;;;;;;4330744;33;42883;-77
2022/05/18 11:15:52;;;;;;;;;;;21.30;97.10;;;;;;4330843;33;42435;-77
2022/05/18 11:18:30;;;;;;;;;;;21.40;97.20;;;;;;4331423;33;43815;-78
2022/05/18 11:21:04;;;;;;;;;;;21.40;97.20;;;;;;4330770;33;43458;-77
2022/05/18 11:23:34;;;;;;;;;;;21.40;97.30;;;;;;4331229;33;42255;-78
2022/05/18 11:26:06;;;;;;;;;;;21.40;97.30;;;;;;4331147;33;43000;-78
2022/05/18 11:28:59;;;;;;;;;;;21.40;97.40;;;;;;4319984;33;43707;-77
2022/05/18 11:31:45;;;;;;;;;;;21.40;97.50;;;;;;4331121;33;43894;-78
2022/05/18 11:34:14;;;;;;;;;;;21.40;97.60;;;;;;4330905;33;43085;-78
2022/05/18 11:36:41;;;;;;;;;;;21.50;97.70;;;;;;4317689;33;43482;-78
2022/05/18 11:39:11;;;;;;;;;;;21.50;97.60;;;;;;4331483;33;44129;-78
2022/05/18 11:41:39;;;;;;;;;;;21.50;97.70;;;;;;4317398;33;43858;-78
2022/05/18 11:44:08;;;;;;;;;;;21.50;97.70;;;;;;4317309;33;44036;-78
2022/05/18 11:46:43;;;;;;;;;;;21.50;97.80;;;;;;4330967;33;43536;-78
2022/05/18 11:49:13;;;;;;;;;;;21.50;98.00;;;;;;4330925;33;43718;-78
2022/05/18 11:51:50;;;;;;;;;;;21.50;98.30;;;;;;4317359;33;43744;-78
2022/05/18 11:54:35;;;;;;;;;;;21.60;98.20;;;;;;4317400;33;42878;-78
2022/05/18 11:57:08;;;;;;;;;;;21.60;98.50;;;;;;4317109;33;43978;-78
2022/05/18 12:00:07;;;;;;;;;;;21.60;98.70;;;;;;4317096;33;43157;-77
2022/05/18 12:02:37;;;;;;;;;;;21.70;98.60;;;;;;4302167;33;43486;-78
2022/05/18 12:05:23;;;;;;;;;;;21.70;98.50;;;;;;4330658;33;42841;-78
2022/05/18 12:08:10;;;;;;;;;;;21.70;98.50;;;;;;4330610;33;44088;-78
2022/05/18 12:10:52;;;;;;;;;;;21.80;98.60;;;;;;4330858;33;43478;-78
2022/05/18 12:13:37;;;;;;;;;;;21.80;98.60;;;;;;4330667;33;45733;-78
2022/05/18 12:16:09;;;;;;;;;;;21.80;98.50;;;;;;4330659;33;43482;-78
2022/05/18 12:18:42;;;;;;;;;;;21.80;98.50;;;;;;4317360;33;43498;-78
2022/05/18 12:21:27;;;;;;;;;;;21.90;98.60;;;;;;4317434;33;46078;-78
2022/05/18 12:23:57;;;;;;;;;;;21.90;98.40;;;;;;4330611;33;43489;-78
2022/05/18 12:26:31;;;;;;;;;;;21.90;98.40;;;;;;4330753;33;43481;-78
2022/05/18 12:28:58;;;;;;;;;;;22.00;98.40;;;;;;4316828;33;43866;-78
2022/05/18 12:31:28;;;;;;;;;;;22.00;98.40;;;;;;4316824;33;44142;-78
2022/05/18 12:34:01;;;;;;;;;;;22.00;98.50;;;;;;4330126;33;43307;-78
2022/05/18 12:36:49;;;;;;;;;;;22.00;98.50;;;;;;4317555;33;45436;-78
2022/05/18 12:39:19;;;;;;;;;;;22.10;98.50;;;;;;4331302;33;20294;-78
2022/05/18 12:41:54;;;;;;;;;;;22.10;98.40;;;;;;4330307;33;44735;-78
2022/05/18 12:44:28;;;;;;;;;;;22.10;98.40;;;;;;4317218;33;42879;-78
2022/05/18 12:47:02;;;;;;;;;;;22.20;98.40;;;;;;4330585;33;43948;-78
2022/05/18 12:49:34;;;;;;;;;;;22.20;98.50;;;;;;4330490;33;44200;-78
2022/05/18 12:52:04;;;;;;;;;;;22.20;98.50;;;;;;4317148;33;44389;-78
2022/05/18 12:54:44;;;;;;;;;;;22.20;98.70;;;;;;4317574;33;43982;-79
2022/05/18 12:57:17;;;;;;;;;;;22.20;98.60;;;;;;4330440;33;43032;-78
2022/05/18 12:59:59;;;;;;;;;;;22.30;98.70;;;;;;4330437;33;43572;-79
2022/05/18 13:02:38;;;;;;;;;;;22.30;98.70;;;;;;4316415;33;42831;-79
2022/05/18 13:05:10;;;;;;;;;;;22.30;99.00;;;;;;4317139;33;44831;-79
2022/05/18 13:07:37;;;;;;;;;;;22.40;98.70;;;;;;4317210;33;43927;-79
2022/05/18 13:10:12;;;;;;;;;;;22.40;98.90;;;;;;4331784;33;20005;-78
2022/05/18 13:12:48;;;;;;;;;;;22.40;98.90;;;;;;4332877;33;44428;-79
2022/05/18 13:15:25;;;;;;;;;;;22.40;98.80;;;;;;4332450;33;44204;-79
2022/05/18 13:17:55;;;;;;;;;;;22.50;98.80;;;;;;4319449;33;43047;-79
2022/05/18 13:20:25;;;;;;;;;;;22.50;98.60;;;;;;4332938;33;44484;-79
2022/05/18 13:23:19;;;;;;;;;;;22.50;98.50;;;;;;4320082;33;45541;-78
2022/05/18 13:25:51;;;;;;;;;;;22.60;98.60;;;;;;4332844;33;43157;-79
2022/05/18 13:28:21;;;;;;;;;;;22.60;98.50;;;;;;4332810;33;45098;-78
2022/05/18 13:30:55;;;;;;;;;;;22.60;98.50;;;;;;4332809;33;44296;-79
2022/05/18 13:34:00;;;;;;;;;;;22.60;98.30;;;;;;4321179;33;43440;-79
2022/05/18 13:36:43;;;;;;;;;;;22.60;98.30;;;;;;4332619;33;43384;-79
2022/05/18 13:39:25;;;;;;;;;;;22.70;98.40;;;;;;4332257;33;43340;-79
2022/05/18 13:41:52;;;;;;;;;;;22.70;98.40;;;;;;4332619;33;43427;-79
2022/05/18 13:44:26;;;;;;;;;;;22.70;98.40;;;;;;4332487;33;43360;-79
2022/05/18 13:46:54;;;;;;;;;;;22.70;98.30;;;;;;4319607;33;43510;-79
2022/05/18 13:49:27;;;;;;;;;;;22.80;98.30;;;;;;4319178;33;44223;-79
2022/05/18 13:52:06;;;;;;;;;;;22.80;98.20;;;;;;4318973;33;44086;-79
2022/05/18 13:54:40;;;;;;;;;;;22.80;98.20;;;;;;4319577;33;45029;-78
2022/05/18 13:57:16;;;;;;;;;;;22.80;98.20;;;;;;4319244;33;41986;-79
2022/05/18 13:59:53;;;;;;;;;;;22.90;98.20;;;;;;4332516;33;43167;-78
2022/05/18 14:02:22;;;;;;;;;;;22.90;98.20;;;;;;4332038;33;43938;-79
2022/05/18 14:04:58;;;;;;;;;;;22.90;98.30;;;;;;4319115;33;44090;-79
2022/05/18 14:07:30;;;;;;;;;;;22.90;98.20;;;;;;4332200;33;43608;-79
2022/05/18 14:10:21;;;;;;;;;;;23.00;98.20;;;;;;4322107;33;20068;-78
2022/05/18 14:12:49;;;;;;;;;;;23.00;98.20;;;;;;4318880;33;44658;-79
2022/05/18 14:15:19;;;;;;;;;;;23.00;98.10;;;;;;4332362;33;44173;-78
2022/05/18 14:17:55;;;;;;;;;;;23.00;98.10;;;;;;4319118;33;43767;-79
2022/05/18 14:20:33;;;;;;;;;;;23.10;98.00;;;;;;4331628;33;42970;-79
2022/05/18 14:23:29;;;;;;;;;;;23.10;98.00;;;;;;4331341;33;44686;-79
2022/05/18 14:26:06;;;;;;;;;;;23.10;98.00;;;;;;4331632;33;42877;-79
2022/05/18 14:28:46;;;;;;;;;;;23.10;97.90;;;;;;4332035;33;44252;-78
2022/05/18 14:31:16;;;;;;;;;;;23.10;98.00;;;;;;4331508;33;42968;-78
2022/05/18 14:33:46;;;;;;;;;;;23.20;97.90;;;;;;4318388;33;44065;-79
2022/05/18 14:36:21;;;;;;;;;;;23.20;97.80;;;;;;4331916;33;43943;-79
2022/05/18 14:38:51;;;;;;;;;;;23.20;97.90;;;;;;4331703;33;43032;-79
2022/05/18 14:41:22;;;;;;;;;;;23.20;97.90;;;;;;4331391;33;44031;-79
2022/05/18 14:43:54;;;;;;;;;;;23.20;97.80;;;;;;4331735;33;43789;-79
2022/05/18 14:46:21;;;;;;;;;;;23.20;97.90;;;;;;4331533;33;43299;-79
2022/05/18 14:49:02;;;;;;;;;;;23.30;97.90;;;;;;4331590;33;44258;-79
2022/05/18 14:51:42;;;;;;;;;;;23.30;97.70;;;;;;4331221;33;43294;-79
2022/05/18 14:54:17;;;;;;;;;;;23.30;97.70;;;;;;4318124;33;42899;-79
2022/05/18 14:56:50;;;;;;;;;;;23.30;97.80;;;;;;4318002;33;43726;-78
2022/05/18 14:59:19;;;;;;;;;;;23.40;98.00;;;;;;4318196;33;43721;-78
2022/05/18 15:01:46;;;;;;;;;;;23.40;98.00;;;;;;4318122;33;43445;-79
2022/05/18 15:04:16;;;;;;;;;;;23.40;97.80;;;;;;4331508;33;44244;-79
2022/05/18 15:06:49;;;;;;;;;;;23.40;97.80;;;;;;4318398;33;43095;-78